sensor_id;sensor_type;location;lat;lon;timestamp;pressure;altitude;pressure_sealevel;temperature;humidity
19208;BME280;9737;59.466;18.036;2023-07-29T00:02:23;98085.28;;;13.13;66.52
19208;BME280;9737;59.466;18.036;2023-07-29T00:04:51;98130.41;;;13.22;66.60
19208;BME280;9737;59.466;18.036;2023-07-29T00:07:19;98159.31;;;13.33;66.86
19208;BME280;9737;59.466;18.036;2023-07-29T00:09:47;98171.63;;;13.35;66.86
19208;BME280;9737;59.466;18.036;2023-07-29T00:12:14;98188.09;;;13.38;67.38
19208;BME280;9737;59.466;18.036;2023-07-29T00:14:44;98195.75;;;13.41;67.26
19208;BME280;9737;59.466;18.036;2023-07-29T00:17:12;98216.72;;;13.44;67.42
19208;BME280;9737;59.466;18.036;2023-07-29T00:19:40;98211.59;;;13.43;67.64
19208;BME280;9737;59.466;18.036;2023-07-29T00:22:08;98187.28;;;13.38;67.55
19208;BME280;9737;59.466;18.036;2023-07-29T00:24:36;98170.34;;;13.30;67.74
19208;BME280;9737;59.466;18.036;2023-07-29T00:27:04;98180.66;;;13.33;67.84
19208;BME280;9737;59.466;18.036;2023-07-29T00:29:32;98203.31;;;13.38;67.75
19208;BME280;9737;59.466;18.036;2023-07-29T00:32:02;98191.34;;;13.33;67.89
19208;BME280;9737;59.466;18.036;2023-07-29T00:34:30;98197.50;;;13.34;67.96
19208;BME280;9737;59.466;18.036;2023-07-29T00:36:57;98162.50;;;13.29;67.79
19208;BME280;9737;59.466;18.036;2023-07-29T00:39:25;98200.00;;;13.36;68.37
19208;BME280;9737;59.466;18.036;2023-07-29T00:41:54;98173.38;;;13.27;68.34
19208;BME280;9737;59.466;18.036;2023-07-29T00:44:21;98180.84;;;13.32;68.60
19208;BME280;9737;59.466;18.036;2023-07-29T00:46:50;98182.69;;;13.31;68.52
19208;BME280;9737;59.466;18.036;2023-07-29T00:49:19;98183.03;;;13.28;68.58
19208;BME280;9737;59.466;18.036;2023-07-29T00:51:47;98184.53;;;13.31;68.50
19208;BME280;9737;59.466;18.036;2023-07-29T00:54:15;98217.28;;;13.40;68.71
19208;BME280;9737;59.466;18.036;2023-07-29T00:56:43;98195.84;;;13.33;68.80
19208;BME280;9737;59.466;18.036;2023-07-29T00:59:11;98194.38;;;13.30;69.03
19208;BME280;9737;59.466;18.036;2023-07-29T01:01:39;98211.50;;;13.36;68.95
19208;BME280;9737;59.466;18.036;2023-07-29T01:04:07;98199.53;;;13.32;68.92
19208;BME280;9737;59.466;18.036;2023-07-29T01:06:41;98197.03;;;13.30;69.12
19208;BME280;9737;59.466;18.036;2023-07-29T01:09:24;98193.72;;;13.28;69.22
19208;BME280;9737;59.466;18.036;2023-07-29T01:11:58;98178.88;;;13.26;69.44
19208;BME280;9737;59.466;18.036;2023-07-29T01:14:34;98134.78;;;13.15;69.44
19208;BME280;9737;59.466;18.036;2023-07-29T01:17:08;98085.94;;;13.00;69.60
19208;BME280;9737;59.466;18.036;2023-07-29T01:19:43;98109.88;;;13.08;69.60
19208;BME280;9737;59.466;18.036;2023-07-29T01:22:19;98131.66;;;13.12;69.73
19208;BME280;9737;59.466;18.036;2023-07-29T01:24:49;98105.91;;;13.04;69.87
19208;BME280;9737;59.466;18.036;2023-07-29T01:27:17;98093.94;;;13.00;69.95
19208;BME280;9737;59.466;18.036;2023-07-29T01:29:45;98068.00;;;12.94;70.02
19208;BME280;9737;59.466;18.036;2023-07-29T01:32:17;98083.63;;;12.97;70.05
19208;BME280;9737;59.466;18.036;2023-07-29T01:34:51;98083.63;;;12.97;70.13
19208;BME280;9737;59.466;18.036;2023-07-29T01:37:26;98065.31;;;12.94;70.13
19208;BME280;9737;59.466;18.036;2023-07-29T01:39:57;98060.38;;;12.91;70.40
19208;BME280;9737;59.466;18.036;2023-07-29T01:42:26;98074.97;;;12.95;70.33
19208;BME280;9737;59.466;18.036;2023-07-29T01:44:56;98054.38;;;12.89;70.66
19208;BME280;9737;59.466;18.036;2023-07-29T01:47:24;98060.38;;;12.91;70.52
19208;BME280;9737;59.466;18.036;2023-07-29T01:49:52;98023.69;;;12.78;70.59
19208;BME280;9737;59.466;18.036;2023-07-29T01:52:20;97977.59;;;12.69;70.59
19208;BME280;9737;59.466;18.036;2023-07-29T01:54:48;97982.09;;;12.69;70.79
19208;BME280;9737;59.466;18.036;2023-07-29T01:57:17;97980.28;;;12.69;70.67
19208;BME280;9737;59.466;18.036;2023-07-29T01:59:45;97978.63;;;12.68;70.86
19208;BME280;9737;59.466;18.036;2023-07-29T02:02:13;97958.03;;;12.62;70.90
19208;BME280;9737;59.466;18.036;2023-07-29T02:04:40;97990.94;;;12.69;71.05
19208;BME280;9737;59.466;18.036;2023-07-29T02:07:09;97958.84;;;12.63;70.93
19208;BME280;9737;59.466;18.036;2023-07-29T02:09:37;97963.38;;;12.62;71.06
19208;BME280;9737;59.466;18.036;2023-07-29T02:12:05;97934.97;;;12.55;71.25
19208;BME280;9737;59.466;18.036;2023-07-29T02:14:35;97940.13;;;12.56;71.23
19208;BME280;9737;59.466;18.036;2023-07-29T02:17:03;97928.81;;;12.54;71.24
19208;BME280;9737;59.466;18.036;2023-07-29T02:19:31;97897.56;;;12.48;71.34
19208;BME280;9737;59.466;18.036;2023-07-29T02:21:59;97872.00;;;12.39;71.31
19208;BME280;9737;59.466;18.036;2023-07-29T02:24:27;97865.03;;;12.38;71.44
19208;BME280;9737;59.466;18.036;2023-07-29T02:26:54;97915.22;;;12.49;71.47
19208;BME280;9737;59.466;18.036;2023-07-29T02:29:22;97900.44;;;12.47;71.75
19208;BME280;9737;59.466;18.036;2023-07-29T02:31:53;97905.75;;;12.47;71.61
19208;BME280;9737;59.466;18.036;2023-07-29T02:34:21;97940.50;;;12.53;71.69
19208;BME280;9737;59.466;18.036;2023-07-29T02:36:48;97941.13;;;12.55;71.87
19208;BME280;9737;59.466;18.036;2023-07-29T02:39:16;97899.94;;;12.43;71.78
19208;BME280;9737;59.466;18.036;2023-07-29T02:41:44;97871.38;;;12.37;71.98
19208;BME280;9737;59.466;18.036;2023-07-29T02:44:12;97835.00;;;12.29;72.02
19208;BME280;9737;59.466;18.036;2023-07-29T02:46:40;97867.06;;;12.36;71.88
19208;BME280;9737;59.466;18.036;2023-07-29T02:49:09;97932.88;;;12.50;72.10
19208;BME280;9737;59.466;18.036;2023-07-29T02:51:37;97950.13;;;12.54;72.36
19208;BME280;9737;59.466;18.036;2023-07-29T02:54:05;97971.91;;;12.58;72.26
19208;BME280;9737;59.466;18.036;2023-07-29T02:56:33;98029.41;;;12.75;72.07
19208;BME280;9737;59.466;18.036;2023-07-29T02:59:01;98035.56;;;12.76;72.79
19208;BME280;9737;59.466;18.036;2023-07-29T03:01:29;98057.16;;;12.81;72.57
19208;BME280;9737;59.466;18.036;2023-07-29T03:03:57;98033.91;;;12.75;72.80
19208;BME280;9737;59.466;18.036;2023-07-29T03:06:26;98041.91;;;12.75;72.71
19208;BME280;9737;59.466;18.036;2023-07-29T03:08:54;98046.22;;;12.76;72.71
19208;BME280;9737;59.466;18.036;2023-07-29T03:11:22;98078.13;;;12.84;72.63
19208;BME280;9737;59.466;18.036;2023-07-29T03:13:50;98088.41;;;12.87;72.78
19208;BME280;9737;59.466;18.036;2023-07-29T03:16:18;98061.84;;;12.79;72.91
19208;BME280;9737;59.466;18.036;2023-07-29T03:18:48;98108.75;;;12.88;72.98
19208;BME280;9737;59.466;18.036;2023-07-29T03:21:16;98096.44;;;12.87;72.95
19208;BME280;9737;59.466;18.036;2023-07-29T03:23:45;98077.28;;;12.83;73.10
19208;BME280;9737;59.466;18.036;2023-07-29T03:26:13;98069.84;;;12.79;73.05
19208;BME280;9737;59.466;18.036;2023-07-29T03:28:42;98079.31;;;12.81;73.50
19208;BME280;9737;59.466;18.036;2023-07-29T03:31:10;98074.81;;;12.82;73.28
19208;BME280;9737;59.466;18.036;2023-07-29T03:33:39;98075.19;;;12.79;73.34
19208;BME280;9737;59.466;18.036;2023-07-29T03:36:06;98066.53;;;12.77;73.57
19208;BME280;9737;59.466;18.036;2023-07-29T03:38:34;98063.56;;;12.71;73.58
19208;BME280;9737;59.466;18.036;2023-07-29T03:41:08;98105.44;;;12.86;73.67
19208;BME280;9737;59.466;18.036;2023-07-29T03:43:36;98118.41;;;12.89;73.72
19208;BME280;9737;59.466;18.036;2023-07-29T03:46:04;98133.22;;;12.91;73.74
19208;BME280;9737;59.466;18.036;2023-07-29T03:48:34;98183.28;;;13.04;73.96
19208;BME280;9737;59.466;18.036;2023-07-29T03:51:02;98233.00;;;13.20;74.05
19208;BME280;9737;59.466;18.036;2023-07-29T03:53:30;98293.16;;;13.30;73.78
19208;BME280;9737;59.466;18.036;2023-07-29T03:55:58;98364.03;;;13.48;74.20
19208;BME280;9737;59.466;18.036;2023-07-29T03:58:29;98407.34;;;13.58;73.94
19208;BME280;9737;59.466;18.036;2023-07-29T04:00:56;98444.03;;;13.64;74.24
19208;BME280;9737;59.466;18.036;2023-07-29T04:03:23;98494.16;;;13.77;74.08
19208;BME280;9737;59.466;18.036;2023-07-29T04:05:51;98518.31;;;13.83;74.07
19208;BME280;9737;59.466;18.036;2023-07-29T04:08:19;98543.50;;;13.89;74.33
19208;BME280;9737;59.466;18.036;2023-07-29T04:10:47;98580.84;;;13.97;74.71
19208;BME280;9737;59.466;18.036;2023-07-29T04:13:15;98615.69;;;14.04;74.44
19208;BME280;9737;59.466;18.036;2023-07-29T04:15:45;98690.72;;;14.25;74.86
19208;BME280;9737;59.466;18.036;2023-07-29T04:18:12;98710.09;;;14.27;74.86
19208;BME280;9737;59.466;18.036;2023-07-29T04:20:40;98756.97;;;14.38;74.89
19208;BME280;9737;59.466;18.036;2023-07-29T04:23:08;98787.22;;;14.46;74.69
19208;BME280;9737;59.466;18.036;2023-07-29T04:25:36;98846.31;;;14.60;74.64
19208;BME280;9737;59.466;18.036;2023-07-29T04:28:04;98907.91;;;14.74;74.89
19208;BME280;9737;59.466;18.036;2023-07-29T04:30:32;98939.16;;;14.82;75.31
19208;BME280;9737;59.466;18.036;2023-07-29T04:33:01;98986.28;;;14.91;74.74
19208;BME280;9737;59.466;18.036;2023-07-29T04:35:29;99048.13;;;15.04;75.04
19208;BME280;9737;59.466;18.036;2023-07-29T04:37:57;99094.09;;;15.16;75.32
19208;BME280;9737;59.466;18.036;2023-07-29T04:40:24;99154.09;;;15.30;75.41
19208;BME280;9737;59.466;18.036;2023-07-29T04:42:52;99233.09;;;15.42;75.21
19208;BME280;9737;59.466;18.036;2023-07-29T04:45:20;99307.44;;;15.64;75.19
19208;BME280;9737;59.466;18.036;2023-07-29T04:47:48;99375.03;;;15.83;75.45
19208;BME280;9737;59.466;18.036;2023-07-29T04:50:17;99405.69;;;15.88;75.51
19208;BME280;9737;59.466;18.036;2023-07-29T04:52:45;99438.03;;;15.95;75.36
19208;BME280;9737;59.466;18.036;2023-07-29T04:55:14;99483.59;;;16.03;75.37
19208;BME280;9737;59.466;18.036;2023-07-29T04:57:41;99529.66;;;16.15;75.61
19208;BME280;9737;59.466;18.036;2023-07-29T05:00:10;99557.31;;;16.15;75.60
19208;BME280;9737;59.466;18.036;2023-07-29T05:02:38;99630.91;;;16.37;75.61
19208;BME280;9737;59.466;18.036;2023-07-29T05:05:06;99653.53;;;16.42;75.73
19208;BME280;9737;59.466;18.036;2023-07-29T05:07:36;99745.13;;;16.64;75.55
19208;BME280;9737;59.466;18.036;2023-07-29T05:10:05;99828.91;;;16.84;75.79
19208;BME280;9737;59.466;18.036;2023-07-29T05:12:33;99918.72;;;17.06;75.72
19208;BME280;9737;59.466;18.036;2023-07-29T05:15:01;100001.19;;;17.21;75.82
19208;BME280;9737;59.466;18.036;2023-07-29T05:17:29;100069.25;;;17.38;75.73
19208;BME280;9737;59.466;18.036;2023-07-29T05:19:57;100140.19;;;17.53;75.82
19208;BME280;9737;59.466;18.036;2023-07-29T05:22:25;100116.66;;;17.47;75.79
19208;BME280;9737;59.466;18.036;2023-07-29T05:24:54;100150.59;;;17.56;75.70
19208;BME280;9737;59.466;18.036;2023-07-29T05:27:21;100198.03;;;17.65;75.76
19208;BME280;9737;59.466;18.036;2023-07-29T05:29:49;100267.69;;;17.77;75.79
19208;BME280;9737;59.466;18.036;2023-07-29T05:32:17;100343.44;;;17.98;75.89
19208;BME280;9737;59.466;18.036;2023-07-29T05:34:45;100423.03;;;18.17;75.76
19208;BME280;9737;59.466;18.036;2023-07-29T05:37:13;100425.56;;;18.18;75.74
19208;BME280;9737;59.466;18.036;2023-07-29T05:39:41;100430.94;;;18.18;75.74
19208;BME280;9737;59.466;18.036;2023-07-29T05:42:10;100420.50;;;18.15;75.67
19208;BME280;9737;59.466;18.036;2023-07-29T05:44:38;100424.88;;;18.16;75.83
19208;BME280;9737;59.466;18.036;2023-07-29T05:47:06;100478.13;;;18.31;75.75
19208;BME280;9737;59.466;18.036;2023-07-29T05:49:33;100556.28;;;18.47;75.67
19208;BME280;9737;59.466;18.036;2023-07-29T05:52:01;100663.50;;;18.69;75.77
19208;BME280;9737;59.466;18.036;2023-07-29T05:54:29;100584.28;;;18.54;75.65
19208;BME280;9737;59.466;18.036;2023-07-29T05:56:57;100521.41;;;18.37;75.55
19208;BME280;9737;59.466;18.036;2023-07-29T05:59:26;100602.81;;;18.57;75.62
19208;BME280;9737;59.466;18.036;2023-07-29T06:01:56;100604.66;;;18.56;75.48
19208;BME280;9737;59.466;18.036;2023-07-29T06:04:24;100686.41;;;18.73;75.40
19208;BME280;9737;59.466;18.036;2023-07-29T06:06:51;100794.22;;;18.99;75.47
19208;BME280;9737;59.466;18.036;2023-07-29T06:09:19;100830.00;;;19.09;75.37
19208;BME280;9737;59.466;18.036;2023-07-29T06:11:47;100800.28;;;19.01;75.32
19208;BME280;9737;59.466;18.036;2023-07-29T06:14:15;100867.97;;;19.16;75.23
19208;BME280;9737;59.466;18.036;2023-07-29T06:16:44;100844.00;;;19.13;75.31
19208;BME280;9737;59.466;18.036;2023-07-29T06:19:12;100773.13;;;18.95;75.22
19208;BME280;9737;59.466;18.036;2023-07-29T06:21:40;100921.47;;;19.29;75.15
19208;BME280;9737;59.466;18.036;2023-07-29T06:24:08;100975.84;;;19.42;75.10
19208;BME280;9737;59.466;18.036;2023-07-29T06:26:36;100906.59;;;19.25;75.00
19208;BME280;9737;59.466;18.036;2023-07-29T06:29:05;100973.16;;;19.42;74.92
19208;BME280;9737;59.466;18.036;2023-07-29T06:31:32;100916.91;;;19.29;74.94
19208;BME280;9737;59.466;18.036;2023-07-29T06:34:02;100916.06;;;19.29;74.80
19208;BME280;9737;59.466;18.036;2023-07-29T06:36:29;100872.19;;;19.18;74.81
19208;BME280;9737;59.466;18.036;2023-07-29T06:38:57;100962.53;;;19.40;74.67
19208;BME280;9737;59.466;18.036;2023-07-29T06:41:25;100967.91;;;19.40;74.75
19208;BME280;9737;59.466;18.036;2023-07-29T06:43:53;100965.22;;;19.40;74.66
19208;BME280;9737;59.466;18.036;2023-07-29T06:46:21;100980.94;;;19.45;74.55
19208;BME280;9737;59.466;18.036;2023-07-29T06:48:49;100970.31;;;19.43;74.58
19208;BME280;9737;59.466;18.036;2023-07-29T06:51:18;100985.16;;;19.47;74.49
19208;BME280;9737;59.466;18.036;2023-07-29T06:53:45;101030.09;;;19.57;74.36
19208;BME280;9737;59.466;18.036;2023-07-29T06:56:13;101113.75;;;19.74;74.15
19208;BME280;9737;59.466;18.036;2023-07-29T06:58:41;101070.50;;;19.66;74.29
19208;BME280;9737;59.466;18.036;2023-07-29T07:01:09;101129.47;;;19.79;74.12
19208;BME280;9737;59.466;18.036;2023-07-29T07:03:37;101147.03;;;19.83;73.99
19208;BME280;9737;59.466;18.036;2023-07-29T07:06:05;101289.56;;;20.15;74.00
19208;BME280;9737;59.466;18.036;2023-07-29T07:08:34;101476.28;;;20.57;73.88
19208;BME280;9737;59.466;18.036;2023-07-29T07:11:02;101537.94;;;20.71;73.97
19208;BME280;9737;59.466;18.036;2023-07-29T07:13:30;101523.72;;;20.69;73.87
19208;BME280;9737;59.466;18.036;2023-07-29T07:15:57;101541.31;;;20.73;73.76
19208;BME280;9737;59.466;18.036;2023-07-29T07:18:25;101586.25;;;20.84;73.77
19208;BME280;9737;59.466;18.036;2023-07-29T07:20:53;101631.13;;;20.95;73.59
19208;BME280;9737;59.466;18.036;2023-07-29T07:23:21;101755.56;;;21.22;73.42
19208;BME280;9737;59.466;18.036;2023-07-29T07:25:50;101775.94;;;21.26;73.47
19208;BME280;9737;59.466;18.036;2023-07-29T07:28:18;101860.75;;;21.45;73.34
19208;BME280;9737;59.466;18.036;2023-07-29T07:30:46;101948.97;;;21.65;73.15
19208;BME280;9737;59.466;18.036;2023-07-29T07:33:13;101905.84;;;21.54;73.22
19208;BME280;9737;59.466;18.036;2023-07-29T07:35:41;101782.19;;;21.27;73.30
19208;BME280;9737;59.466;18.036;2023-07-29T07:38:09;101744.03;;;21.20;73.04
19208;BME280;9737;59.466;18.036;2023-07-29T07:40:37;101599.31;;;20.89;72.98
19208;BME280;9737;59.466;18.036;2023-07-29T07:43:06;101493.59;;;20.64;72.93
19208;BME280;9737;59.466;18.036;2023-07-29T07:45:34;101400.16;;;20.44;72.78
19208;BME280;9737;59.466;18.036;2023-07-29T07:48:02;101336.50;;;20.32;72.66
19208;BME280;9737;59.466;18.036;2023-07-29T07:50:30;101340.06;;;20.32;72.64
19208;BME280;9737;59.466;18.036;2023-07-29T07:52:58;101477.38;;;20.64;72.51
19208;BME280;9737;59.466;18.036;2023-07-29T07:55:26;101533.22;;;20.73;72.53
19208;BME280;9737;59.466;18.036;2023-07-29T07:57:54;101643.03;;;21.02;72.29
19208;BME280;9737;59.466;18.036;2023-07-29T08:00:23;101644.75;;;21.03;72.25
19208;BME280;9737;59.466;18.036;2023-07-29T08:02:51;101665.78;;;21.09;72.26
19208;BME280;9737;59.466;18.036;2023-07-29T08:05:19;101672.88;;;21.10;72.03
19208;BME280;9737;59.466;18.036;2023-07-29T08:07:47;101771.63;;;21.33;72.16
19208;BME280;9737;59.466;18.036;2023-07-29T08:10:15;101872.38;;;21.55;71.86
19208;BME280;9737;59.466;18.036;2023-07-29T08:12:42;101877.63;;;21.56;72.04
19208;BME280;9737;59.466;18.036;2023-07-29T08:15:10;101911.06;;;21.65;71.92
19208;BME280;9737;59.466;18.036;2023-07-29T08:17:39;101917.34;;;21.65;71.83
19208;BME280;9737;59.466;18.036;2023-07-29T08:20:08;101969.16;;;21.80;71.63
19208;BME280;9737;59.466;18.036;2023-07-29T08:22:36;102016.16;;;21.89;71.50
19208;BME280;9737;59.466;18.036;2023-07-29T08:25:04;102034.66;;;21.93;71.69
19208;BME280;9737;59.466;18.036;2023-07-29T08:27:33;102104.38;;;22.11;71.32
19208;BME280;9737;59.466;18.036;2023-07-29T08:30:01;102196.88;;;22.25;71.47
19208;BME280;9737;59.466;18.036;2023-07-29T08:32:29;102261.91;;;22.45;71.16
19208;BME280;9737;59.466;18.036;2023-07-29T08:34:58;102243.22;;;22.42;71.31
19208;BME280;9737;59.466;18.036;2023-07-29T08:37:26;102295.41;;;22.53;71.09
19208;BME280;9737;59.466;18.036;2023-07-29T08:39:54;102308.69;;;22.56;71.18
19208;BME280;9737;59.466;18.036;2023-07-29T08:42:23;102355.63;;;22.67;70.83
19208;BME280;9737;59.466;18.036;2023-07-29T08:44:56;102385.59;;;22.75;70.61
19208;BME280;9737;59.466;18.036;2023-07-29T08:47:24;102444.16;;;22.87;70.56
19208;BME280;9737;59.466;18.036;2023-07-29T08:49:52;102443.16;;;22.88;70.53
19208;BME280;9737;59.466;18.036;2023-07-29T08:52:23;102436.00;;;22.87;70.79
19208;BME280;9737;59.466;18.036;2023-07-29T08:54:51;102482.97;;;22.97;70.41
19208;BME280;9737;59.466;18.036;2023-07-29T08:57:20;102559.09;;;23.15;70.18
19208;BME280;9737;59.466;18.036;2023-07-29T08:59:48;102582.09;;;23.21;70.19
19208;BME280;9737;59.466;18.036;2023-07-29T09:02:16;102613.09;;;23.28;70.30
19208;BME280;9737;59.466;18.036;2023-07-29T09:04:44;102737.19;;;23.56;69.92
19208;BME280;9737;59.466;18.036;2023-07-29T09:07:12;102773.63;;;23.63;69.90
19208;BME280;9737;59.466;18.036;2023-07-29T09:09:41;102776.06;;;23.66;69.61
19208;BME280;9737;59.466;18.036;2023-07-29T09:12:09;102772.63;;;23.64;69.95
19208;BME280;9737;59.466;18.036;2023-07-29T09:14:38;102783.22;;;23.67;69.72
19208;BME280;9737;59.466;18.036;2023-07-29T09:17:07;102839.16;;;23.79;69.27
19208;BME280;9737;59.466;18.036;2023-07-29T09:19:35;102914.38;;;23.98;69.58
19208;BME280;9737;59.466;18.036;2023-07-29T09:22:03;103130.47;;;24.44;69.37
19208;BME280;9737;59.466;18.036;2023-07-29T09:24:31;103335.91;;;24.90;69.39
19208;BME280;9737;59.466;18.036;2023-07-29T09:27:01;103447.97;;;25.16;69.07
19208;BME280;9737;59.466;18.036;2023-07-29T09:29:29;103575.66;;;25.40;68.90
19208;BME280;9737;59.466;18.036;2023-07-29T09:32:19;103657.41;;;25.60;68.71
19208;BME280;9737;59.466;18.036;2023-07-29T09:34:47;103736.03;;;25.76;68.65
19208;BME280;9737;59.466;18.036;2023-07-29T09:37:16;103987.66;;;26.31;68.42
19208;BME280;9737;59.466;18.036;2023-07-29T09:39:45;104173.50;;;26.71;68.63
19208;BME280;9737;59.466;18.036;2023-07-29T09:42:18;104418.03;;;27.20;68.37
19208;BME280;9737;59.466;18.036;2023-07-29T09:44:48;104643.06;;;27.65;68.01
19208;BME280;9737;59.466;18.036;2023-07-29T09:47:20;104854.50;;;28.12;67.93
19208;BME280;9737;59.466;18.036;2023-07-29T09:49:49;105251.66;;;28.93;67.86
19208;BME280;9737;59.466;18.036;2023-07-29T09:52:17;105513.53;;;29.47;67.93
19208;BME280;9737;59.466;18.036;2023-07-29T09:54:46;105734.34;;;29.90;67.71
19208;BME280;9737;59.466;18.036;2023-07-29T09:57:15;106022.88;;;30.51;67.33
19208;BME280;9737;59.466;18.036;2023-07-29T09:59:53;106294.00;;;31.04;67.29
19208;BME280;9737;59.466;18.036;2023-07-29T10:02:21;106500.22;;;31.46;67.26
19208;BME280;9737;59.466;18.036;2023-07-29T10:04:52;106647.69;;;31.77;67.05
19208;BME280;9737;59.466;18.036;2023-07-29T10:07:20;106721.78;;;31.94;66.52
19208;BME280;9737;59.466;18.036;2023-07-29T10:09:51;106673.72;;;31.85;66.19
19208;BME280;9737;59.466;18.036;2023-07-29T10:12:20;106467.09;;;31.47;66.25
19208;BME280;9737;59.466;18.036;2023-07-29T10:14:50;106276.16;;;31.10;66.39
19208;BME280;9737;59.466;18.036;2023-07-29T10:17:19;106512.94;;;31.61;65.71
19208;BME280;9737;59.466;18.036;2023-07-29T10:19:48;106590.63;;;31.79;65.40
19208;BME280;9737;59.466;18.036;2023-07-29T10:22:20;106855.09;;;32.32;65.44
19208;BME280;9737;59.466;18.036;2023-07-29T10:24:50;106796.16;;;32.21;64.90
19208;BME280;9737;59.466;18.036;2023-07-29T10:27:19;106487.03;;;31.63;64.74
19208;BME280;9737;59.466;18.036;2023-07-29T10:29:50;106607.19;;;31.91;64.35
19208;BME280;9737;59.466;18.036;2023-07-29T10:32:21;106798.63;;;32.25;64.66
19208;BME280;9737;59.466;18.036;2023-07-29T10:34:52;106897.84;;;32.52;63.80
19208;BME280;9737;59.466;18.036;2023-07-29T10:37:21;107033.78;;;32.81;63.98
19208;BME280;9737;59.466;18.036;2023-07-29T10:39:54;107220.50;;;33.22;63.26
19208;BME280;9737;59.466;18.036;2023-07-29T10:42:22;107060.75;;;32.90;63.01
19208;BME280;9737;59.466;18.036;2023-07-29T10:44:52;106977.03;;;32.77;63.02
19208;BME280;9737;59.466;18.036;2023-07-29T10:47:22;106783.69;;;32.42;62.85
19208;BME280;9737;59.466;18.036;2023-07-29T10:49:52;107118.22;;;33.11;62.38
19208;BME280;9737;59.466;18.036;2023-07-29T10:52:32;107257.97;;;33.40;62.11
19208;BME280;9737;59.466;18.036;2023-07-29T10:55:28;107388.72;;;33.68;61.71
19208;BME280;9737;59.466;18.036;2023-07-29T10:58:17;107636.75;;;34.21;61.59
19208;BME280;9737;59.466;18.036;2023-07-29T11:00:46;107373.72;;;33.72;61.73
19208;BME280;9737;59.466;18.036;2023-07-29T11:03:14;107393.41;;;33.80;61.37
19208;BME280;9737;59.466;18.036;2023-07-29T11:05:48;107370.41;;;33.79;60.86
19208;BME280;9737;59.466;18.036;2023-07-29T11:08:20;107385.88;;;33.83;60.69
19208;BME280;9737;59.466;18.036;2023-07-29T11:11:00;107457.34;;;34.02;60.38
19208;BME280;9737;59.466;18.036;2023-07-29T11:13:29;107734.81;;;34.58;59.97
19208;BME280;9737;59.466;18.036;2023-07-29T11:15:59;107954.31;;;35.03;59.62
19208;BME280;9737;59.466;18.036;2023-07-29T11:18:29;108134.91;;;35.38;59.44
19208;BME280;9737;59.466;18.036;2023-07-29T11:20:58;108259.75;;;35.65;59.09
19208;BME280;9737;59.466;18.036;2023-07-29T11:23:33;107277.34;;;33.80;59.39
19208;BME280;9737;59.466;18.036;2023-07-29T11:26:02;107118.84;;;33.55;58.74
19208;BME280;9737;59.466;18.036;2023-07-29T11:28:31;107318.34;;;34.00;58.25
19208;BME280;9737;59.466;18.036;2023-07-29T11:31:06;107745.19;;;34.83;58.08
19208;BME280;9737;59.466;18.036;2023-07-29T11:33:34;107841.69;;;35.03;57.79
19208;BME280;9737;59.466;18.036;2023-07-29T11:36:02;107902.47;;;35.19;57.55
19208;BME280;9737;59.466;18.036;2023-07-29T11:38:30;108077.50;;;35.54;57.18
19208;BME280;9737;59.466;18.036;2023-07-29T11:41:03;107486.88;;;34.43;57.20
19208;BME280;9737;59.466;18.036;2023-07-29T11:43:35;106379.56;;;32.27;57.01
19208;BME280;9737;59.466;18.036;2023-07-29T11:46:03;106323.66;;;32.25;56.91
19208;BME280;9737;59.466;18.036;2023-07-29T11:48:33;106491.81;;;32.61;56.30
19208;BME280;9737;59.466;18.036;2023-07-29T11:51:02;106681.97;;;33.01;56.14
19208;BME280;9737;59.466;18.036;2023-07-29T11:53:31;106406.50;;;32.47;56.12
19208;BME280;9737;59.466;18.036;2023-07-29T11:55:58;106174.63;;;32.04;55.85
19208;BME280;9737;59.466;18.036;2023-07-29T11:58:26;106166.38;;;32.04;55.51
19208;BME280;9737;59.466;18.036;2023-07-29T12:00:55;106242.97;;;32.23;55.35
19208;BME280;9737;59.466;18.036;2023-07-29T12:03:23;106544.28;;;32.85;54.96
19208;BME280;9737;59.466;18.036;2023-07-29T12:05:53;106205.53;;;32.20;54.69
19208;BME280;9737;59.466;18.036;2023-07-29T12:08:21;106255.94;;;32.33;54.57
19208;BME280;9737;59.466;18.036;2023-07-29T12:10:50;106194.25;;;32.23;54.10
19208;BME280;9737;59.466;18.036;2023-07-29T12:13:18;106677.47;;;33.24;54.06
19208;BME280;9737;59.466;18.036;2023-07-29T12:15:45;106593.19;;;33.07;53.76
19208;BME280;9737;59.466;18.036;2023-07-29T12:18:13;106958.19;;;33.87;53.79
19208;BME280;9737;59.466;18.036;2023-07-29T12:20:41;106514.00;;;32.97;53.52
19208;BME280;9737;59.466;18.036;2023-07-29T12:23:11;106539.88;;;33.07;52.99
19208;BME280;9737;59.466;18.036;2023-07-29T12:25:39;106470.19;;;32.92;53.25
19208;BME280;9737;59.466;18.036;2023-07-29T12:28:07;106650.97;;;33.34;52.99
19208;BME280;9737;59.466;18.036;2023-07-29T12:30:41;107164.47;;;34.39;52.58
19208;BME280;9737;59.466;18.036;2023-07-29T12:33:09;107256.19;;;34.58;52.49
19208;BME280;9737;59.466;18.036;2023-07-29T12:35:37;106819.38;;;33.71;52.46
19208;BME280;9737;59.466;18.036;2023-07-29T12:38:06;106614.09;;;33.35;52.07
19208;BME280;9737;59.466;18.036;2023-07-29T12:40:38;106206.78;;;32.51;52.28
19208;BME280;9737;59.466;18.036;2023-07-29T12:43:06;106235.38;;;32.61;51.95
19208;BME280;9737;59.466;18.036;2023-07-29T12:45:35;106308.41;;;32.80;51.75
19208;BME280;9737;59.466;18.036;2023-07-29T12:48:06;106332.50;;;32.89;51.55
19208;BME280;9737;59.466;18.036;2023-07-29T12:50:34;106526.06;;;33.31;51.35
19208;BME280;9737;59.466;18.036;2023-07-29T12:53:01;106682.00;;;33.62;51.06
19208;BME280;9737;59.466;18.036;2023-07-29T12:55:29;106561.63;;;33.35;50.84
19208;BME280;9737;59.466;18.036;2023-07-29T12:57:58;106394.38;;;33.09;50.68
19208;BME280;9737;59.466;18.036;2023-07-29T13:00:27;106145.50;;;32.59;50.45
19208;BME280;9737;59.466;18.036;2023-07-29T13:02:55;105801.28;;;31.89;50.41
19208;BME280;9737;59.466;18.036;2023-07-29T13:05:23;106039.38;;;32.42;49.89